createdAt,value
2023-02-04T00:00:07.934Z,90.7
2023-02-04T00:15:01.593Z,90.7
2023-02-04T00:30:07.435Z,90.7
2023-02-04T00:45:02.131Z,90.7
2023-02-04T01:00:02.255Z,90.7
2023-02-04T01:15:02.811Z,90.7
2023-02-04T01:30:01.451Z,90.7
2023-02-04T01:45:01.940Z,90.7
2023-02-04T02:00:02.480Z,90.7
2023-02-04T02:15:03.059Z,90.7
2023-02-04T02:30:01.582Z,90.7
2023-02-04T02:45:02.005Z,90.7
2023-02-04T03:00:02.581Z,90.7
2023-02-04T03:15:01.349Z,90.7
2023-02-04T03:30:01.707Z,90.7
2023-02-04T03:45:02.239Z,90.7
2023-02-04T04:00:01.376Z,90.7
2023-02-04T04:15:02.093Z,90.7
2023-02-04T04:30:01.861Z,90.7
2023-02-04T04:45:02.370Z,90.7
2023-02-04T05:00:02.907Z,90.7
2023-02-04T05:15:02.050Z,90.7
2023-02-04T05:30:01.996Z,90.7
2023-02-04T05:45:02.489Z,90.7
2023-02-04T06:00:03.105Z,90.7
2023-02-04T06:15:01.549Z,90.7
2023-02-04T06:30:02.148Z,90.7
2023-02-04T06:45:02.682Z,90.7
2023-02-04T07:00:01.945Z,90.7
2023-02-04T07:15:02.033Z,90.7
2023-02-04T07:30:02.318Z,90.7
2023-02-04T07:45:02.863Z,90.7
2023-02-04T08:00:02.086Z,90.7
2023-02-04T08:15:01.960Z,90.7
2023-02-04T08:30:02.461Z,90.7
2023-02-04T08:45:01.637Z,90.7
2023-02-04T09:00:02.006Z,90.7
2023-02-04T09:15:02.111Z,90.7
2023-02-04T09:30:02.667Z,90.7
2023-02-04T09:45:03.284Z,90.7
2023-02-04T10:00:01.760Z,90.7
2023-02-04T10:15:02.295Z,90.7
2023-02-04T10:30:02.864Z,90.7
2023-02-04T10:45:02.278Z,90.7
2023-02-04T11:00:01.998Z,90.7
2023-02-04T11:15:02.513Z,90.7
2023-02-04T11:30:01.576Z,90.7
2023-02-04T11:45:01.864Z,90.7
2023-02-04T12:00:02.245Z,90.7
2023-02-04T12:15:02.746Z,90.7
2023-02-04T12:30:01.976Z,90.7
2023-02-04T12:45:02.293Z,90.7
2023-02-04T13:00:01.676Z,78.11
2023-02-04T13:15:02.269Z,94.58
2023-02-04T13:30:01.724Z,83.1
2023-02-04T13:45:02.331Z,94.5
2023-02-04T14:00:02.845Z,86.21
2023-02-04T14:15:01.896Z,98.23
2023-02-04T14:30:02.616Z,107.5
2023-02-04T14:45:03.129Z,107.5
2023-02-04T15:00:02.732Z,114.38
2023-02-04T15:15:03.261Z,114.38
2023-02-04T15:30:01.758Z,114.38
2023-02-04T15:45:02.201Z,114.38
2023-02-04T16:00:01.673Z,118.26
2023-02-04T16:15:01.980Z,119.56
2023-02-04T16:30:01.699Z,120.2
2023-02-04T16:45:02.019Z,120.2
2023-02-04T17:00:02.406Z,120.2
2023-02-04T17:15:02.852Z,120.2
2023-02-04T17:30:03.387Z,120.2
2023-02-04T17:45:01.737Z,120.2
2023-02-04T18:00:02.334Z,120.2
2023-02-04T19:00:02.336Z,120.2
2023-02-04T19:15:01.609Z,120.2
2023-02-04T19:30:01.944Z,120.2
2023-02-04T19:45:02.312Z,120.2
2023-02-04T20:00:02.398Z,120.2
2023-02-04T20:15:02.834Z,120.2
2023-02-04T20:30:03.370Z,120.2
2023-02-04T20:45:01.728Z,120.2
2023-02-04T21:00:02.441Z,120.2
2023-02-04T21:15:01.314Z,120.2
2023-02-04T21:30:01.699Z,120.2
2023-02-04T21:45:02.051Z,120.2
2023-02-04T22:00:02.288Z,120.2
2023-02-04T22:15:04.350Z,120.2
2023-02-04T22:30:01.961Z,120.2
2023-02-04T22:45:03.409Z,120.2
2023-02-04T23:00:02.258Z,120.2
2023-02-04T23:15:03.221Z,120.2
2023-02-04T23:30:08.177Z,120.2
2023-02-04T23:45:08.149Z,120.2
